Ashern, Canada
Current Conditions -  °F | °C
As of 5:00 AM on Sunday 23 Nov 2014 (Local Time) from CYWG Reporting Station
Haze Haze  
Wind Chill: 22°   Ceiling: 400
Heat Index: 32°   Visibility: 5mi
Dew Point: 30°   Wind: 14mph
Humidity: 93%   Direction: 180°S
Pressure: 29.32"   Gusts: NA
Location:  51.18°N, 98.33°W
Report Text: CYWG 231100Z 18012KT 5SM BR OVC004 00/M01 A2932 RMK ST8 SLP942
Loading
Personal Weather Stations






























Interactive Weather Map New forecast layout! Learn more

10-Day Weather Forecast

Advertisements
Track Severe Weather on mobile